PWSweather.com
Personal Weather Stations
Station Observations
IMAZOWIE6
WarszawaPL

WarszawaPL

Lat: 52.27957, Lon: 21.05489

Elevation: 100

Station Type: WS1080

http://stacjapogody.waw.pl/

High Low Average
Temperature 82.8°F28.2°C 63.0°F17.2°C 70.7°F21.5°C
Dew Point -164.5°F-109.2°C -166.5°F-110.3°C -165.7°F-109.8°C
Winds 6.8 mph 10.9 kmh 0.6 mph 1.0 kmh 3.0 mph N4.8 kmh N
Wind Gusts 15.0 mph24.1 kmh 2.8 mph4.5 kmh 6.0 mph9.7 kmh
Humidity - - -
Pressure 29.29 in991.9 mb 29.03 in983.1 mb -
Precipitation 0.00 in0.0 mm - -
Hour Temp Dew Point Humidity Winds Wind Gusts Pressure Precip Precip Rate Daily Precip Total
12:06 AM 69.1°F20.6°C -165.9°F-109.9°C - 2.8 mph N4.5 kmh N 4.8 mph7.7 kmh 29.03 in983.1 mb 0.00 in0.0 mm 0.00 in0.0 mm 0.00 in0.0 mm
12:21 AM 69.1°F20.6°C -165.9°F-109.9°C - 2.8 mph N4.5 kmh N 4.0 mph6.4 kmh 29.03 in983.1 mb 0.00 in0.0 mm 0.00 in0.0 mm 0.00 in0.0 mm
12:36 AM 69.3°F20.7°C -165.9°F-109.9°C - 3.4 mph N5.5 kmh N 7.4 mph11.9 kmh 29.03 in983.1 mb 0.01 in0.3 mm 0.05 in1.3 mm 0.01 in0.3 mm
12:51 AM 69.3°F20.7°C -165.9°F-109.9°C - 2.0 mph N3.2 kmh N 5.4 mph8.7 kmh 29.03 in983.1 mb 0.01 in0.3 mm 0.00 in0.0 mm 0.01 in0.3 mm
01:06 AM 69.4°F20.8°C -165.9°F-109.9°C - 3.4 mph N5.5 kmh N 5.4 mph8.7 kmh 29.03 in983.1 mb 0.01 in0.3 mm 0.00 in0.0 mm 0.01 in0.3 mm
01:21 AM 69.4°F20.8°C -165.9°F-109.9°C - 2.8 mph N4.5 kmh N 8.8 mph14.2 kmh 29.03 in983.1 mb 0.00 in0.0 mm 0.00 in0.0 mm 0.01 in0.3 mm
01:36 AM 69.1°F20.6°C -165.9°F-109.9°C - 5.4 mph N8.7 kmh N 8.8 mph14.2 kmh 29.04 in983.4 mb 0.00 in0.0 mm 0.00 in0.0 mm 0.01 in0.3 mm
01:51 AM 68.7°F20.4°C -165.9°F-109.9°C - 2.8 mph N4.5 kmh N 5.4 mph8.7 kmh 29.04 in983.4 mb 0.00 in0.0 mm 0.00 in0.0 mm 0.01 in0.3 mm
02:06 AM 68.5°F20.3°C -165.9°F-109.9°C - 4.8 mph N7.7 kmh N 9.6 mph15.4 kmh 29.03 in983.1 mb 0.00 in0.0 mm 0.00 in0.0 mm 0.01 in0.3 mm
02:22 AM 68.4°F20.2°C -166.0°F-110.0°C - 2.8 mph N4.5 kmh N 4.8 mph7.7 kmh 29.04 in983.4 mb 0.00 in0.0 mm 0.00 in0.0 mm 0.01 in0.3 mm
02:36 AM 67.8°F19.9°C -166.0°F-110.0°C - 6.8 mph N10.9 kmh N 11.6 mph18.7 kmh 29.04 in983.4 mb 0.00 in0.0 mm 0.00 in0.0 mm 0.01 in0.3 mm
02:51 AM 67.1°F19.5°C -166.1°F-110.1°C - 3.4 mph N5.5 kmh N 7.4 mph11.9 kmh 29.05 in983.7 mb 0.00 in0.0 mm 0.00 in0.0 mm 0.01 in0.3 mm
03:06 AM 66.7°F19.3°C -166.1°F-110.1°C - 4.0 mph N6.4 kmh N 7.4 mph11.9 kmh 29.05 in983.7 mb 0.00 in0.0 mm 0.00 in0.0 mm 0.01 in0.3 mm
03:21 AM 66.2°F19.0°C -166.2°F-110.1°C - 3.4 mph N5.5 kmh N 6.8 mph10.9 kmh 29.05 in983.7 mb 0.00 in0.0 mm 0.00 in0.0 mm 0.01 in0.3 mm
03:36 AM 65.8°F18.8°C -166.2°F-110.1°C - 2.0 mph N3.2 kmh N 5.4 mph8.7 kmh 29.05 in983.7 mb 0.00 in0.0 mm 0.00 in0.0 mm 0.01 in0.3 mm
03:51 AM 65.5°F18.6°C -166.3°F-110.2°C - 3.4 mph N5.5 kmh N 6.8 mph10.9 kmh 29.05 in983.7 mb 0.00 in0.0 mm 0.00 in0.0 mm 0.01 in0.3 mm
04:06 AM 65.3°F18.5°C -166.3°F-110.2°C - 2.8 mph N4.5 kmh N 6.8 mph10.9 kmh 29.06 in984.1 mb 0.00 in0.0 mm 0.00 in0.0 mm 0.01 in0.3 mm
04:21 AM 65.5°F18.6°C -166.3°F-110.2°C - 3.4 mph N5.5 kmh N 5.4 mph8.7 kmh 29.06 in984.1 mb 0.01 in0.3 mm 0.05 in1.3 mm 0.02 in0.5 mm
04:36 AM 65.7°F18.7°C -166.2°F-110.1°C - 2.8 mph N4.5 kmh N 4.0 mph6.4 kmh 29.06 in984.1 mb 0.01 in0.3 mm 0.00 in0.0 mm 0.02 in0.5 mm
04:51 AM 66.2°F19.0°C -166.2°F-110.1°C - 2.8 mph N4.5 kmh N 6.8 mph10.9 kmh 29.05 in983.7 mb 0.01 in0.3 mm 0.00 in0.0 mm 0.02 in0.5 mm
05:06 AM 66.6°F19.2°C -166.1°F-110.1°C - 3.4 mph N5.5 kmh N 6.8 mph10.9 kmh 29.05 in983.7 mb 0.01 in0.3 mm 0.00 in0.0 mm 0.02 in0.5 mm
05:21 AM 68.2°F20.1°C -166.0°F-110.0°C - 2.8 mph N4.5 kmh N 6.8 mph10.9 kmh 29.05 in983.7 mb 0.00 in0.0 mm 0.00 in0.0 mm 0.02 in0.5 mm
05:36 AM 69.4°F20.8°C -165.9°F-109.9°C - 2.8 mph N4.5 kmh N 7.4 mph11.9 kmh 29.05 in983.7 mb 0.00 in0.0 mm 0.00 in0.0 mm 0.02 in0.5 mm
05:51 AM 70.2°F21.2°C -165.8°F-109.9°C - 2.0 mph N3.2 kmh N 4.8 mph7.7 kmh 29.05 in983.7 mb 0.00 in0.0 mm 0.00 in0.0 mm 0.02 in0.5 mm
06:06 AM 70.2°F21.2°C -165.8°F-109.9°C - 4.0 mph N6.4 kmh N 6.8 mph10.9 kmh 29.06 in984.1 mb 0.00 in0.0 mm 0.00 in0.0 mm 0.02 in0.5 mm
06:21 AM 72.0°F22.2°C -165.6°F-109.8°C - 3.4 mph N5.5 kmh N 4.8 mph7.7 kmh 29.06 in984.1 mb 0.00 in0.0 mm 0.00 in0.0 mm 0.02 in0.5 mm
06:36 AM 77.9°F25.5°C -165.0°F-109.4°C - 4.8 mph N7.7 kmh N 6.8 mph10.9 kmh 29.07 in984.4 mb 0.00 in0.0 mm 0.00 in0.0 mm 0.02 in0.5 mm
06:51 AM 80.8°F27.1°C -164.7°F-109.3°C - 3.4 mph N5.5 kmh N 7.4 mph11.9 kmh 29.07 in984.4 mb 0.00 in0.0 mm 0.00 in0.0 mm 0.02 in0.5 mm
07:06 AM 82.6°F28.1°C -164.5°F-109.2°C - 2.8 mph N4.5 kmh N 4.8 mph7.7 kmh 29.07 in984.4 mb 0.00 in0.0 mm 0.00 in0.0 mm 0.02 in0.5 mm
07:21 AM 82.8°F28.2°C -164.5°F-109.2°C - 5.4 mph N8.7 kmh N 10.2 mph16.4 kmh 29.08 in984.8 mb 0.00 in0.0 mm 0.00 in0.0 mm 0.02 in0.5 mm
07:36 AM 81.9°F27.7°C -164.6°F-109.2°C - 3.4 mph N5.5 kmh N 5.4 mph8.7 kmh 29.08 in984.8 mb 0.00 in0.0 mm 0.00 in0.0 mm 0.02 in0.5 mm
07:51 AM 80.8°F27.1°C -164.7°F-109.3°C - 6.8 mph N10.9 kmh N 8.8 mph14.2 kmh 29.09 in985.1 mb 0.00 in0.0 mm 0.00 in0.0 mm 0.02 in0.5 mm
08:06 AM 79.5°F26.4°C -164.8°F-109.3°C - 4.8 mph N7.7 kmh N 8.2 mph13.2 kmh 29.09 in985.1 mb 0.00 in0.0 mm 0.00 in0.0 mm 0.02 in0.5 mm
08:21 AM 78.3°F25.7°C -165.0°F-109.4°C - 3.4 mph N5.5 kmh N 6.8 mph10.9 kmh 29.09 in985.1 mb 0.00 in0.0 mm 0.00 in0.0 mm 0.02 in0.5 mm
08:36 AM 77.2°F25.1°C -165.1°F-109.5°C - 4.0 mph N6.4 kmh N 6.8 mph10.9 kmh 29.10 in985.4 mb 0.00 in0.0 mm 0.00 in0.0 mm 0.02 in0.5 mm
08:51 AM 77.9°F25.5°C -165.0°F-109.4°C - 4.8 mph N7.7 kmh N 9.6 mph15.4 kmh 29.09 in985.1 mb 0.00 in0.0 mm 0.00 in0.0 mm 0.02 in0.5 mm
09:06 AM 77.2°F25.1°C -165.1°F-109.5°C - 2.8 mph N4.5 kmh N 7.4 mph11.9 kmh 29.09 in985.1 mb 0.00 in0.0 mm 0.00 in0.0 mm 0.02 in0.5 mm
09:21 AM 78.1°F25.6°C -165.0°F-109.4°C - 3.4 mph N5.5 kmh N 7.4 mph11.9 kmh 29.09 in985.1 mb 0.00 in0.0 mm 0.00 in0.0 mm 0.02 in0.5 mm
09:36 AM 79.5°F26.4°C -164.8°F-109.3°C - 3.4 mph N5.5 kmh N 6.2 mph10.0 kmh 29.10 in985.4 mb 0.00 in0.0 mm 0.00 in0.0 mm 0.02 in0.5 mm
09:51 AM 76.6°F24.8°C -165.1°F-109.5°C - 6.2 mph N10.0 kmh N 10.8 mph17.4 kmh 29.10 in985.4 mb 0.00 in0.0 mm 0.00 in0.0 mm 0.02 in0.5 mm
10:06 AM 75.2°F24.0°C -165.3°F-109.6°C - 4.8 mph N7.7 kmh N 7.4 mph11.9 kmh 29.11 in985.8 mb 0.00 in0.0 mm 0.00 in0.0 mm 0.02 in0.5 mm
10:21 AM 74.5°F23.6°C -165.4°F-109.7°C - 6.2 mph N10.0 kmh N 10.2 mph16.4 kmh 29.12 in986.1 mb 0.00 in0.0 mm 0.00 in0.0 mm 0.02 in0.5 mm
10:36 AM 75.2°F24.0°C -165.3°F-109.6°C - 4.0 mph N6.4 kmh N 6.2 mph10.0 kmh 29.11 in985.8 mb 0.00 in0.0 mm 0.00 in0.0 mm 0.02 in0.5 mm
10:51 AM 75.7°F24.3°C -165.2°F-109.6°C - 3.4 mph N5.5 kmh N 7.4 mph11.9 kmh 29.11 in985.8 mb 0.00 in0.0 mm 0.00 in0.0 mm 0.02 in0.5 mm
11:06 AM 75.7°F24.3°C -165.2°F-109.6°C - 4.0 mph N6.4 kmh N 6.2 mph10.0 kmh 29.12 in986.1 mb 0.00 in0.0 mm 0.00 in0.0 mm 0.02 in0.5 mm
11:21 AM 75.7°F24.3°C -165.2°F-109.6°C - 5.4 mph N8.7 kmh N 12.2 mph19.6 kmh 29.12 in986.1 mb 0.00 in0.0 mm 0.00 in0.0 mm 0.02 in0.5 mm
11:36 AM 74.5°F23.6°C -165.4°F-109.7°C - 3.4 mph N5.5 kmh N 6.2 mph10.0 kmh 29.13 in986.5 mb 0.00 in0.0 mm 0.00 in0.0 mm 0.02 in0.5 mm
11:51 AM 76.3°F24.6°C -165.2°F-109.6°C - 2.8 mph N4.5 kmh N 6.8 mph10.9 kmh 29.13 in986.5 mb 0.00 in0.0 mm 0.00 in0.0 mm 0.02 in0.5 mm
12:06 PM 76.5°F24.7°C -165.2°F-109.6°C - 4.0 mph N6.4 kmh N 6.8 mph10.9 kmh 29.13 in986.5 mb 0.00 in0.0 mm 0.00 in0.0 mm 0.02 in0.5 mm
12:21 PM 76.6°F24.8°C -165.1°F-109.5°C - 2.0 mph N3.2 kmh N 4.8 mph7.7 kmh 29.14 in986.8 mb 0.00 in0.0 mm 0.00 in0.0 mm 0.02 in0.5 mm
12:36 PM 75.9°F24.4°C -165.2°F-109.6°C - 1.4 mph N2.3 kmh N 4.8 mph7.7 kmh 29.14 in986.8 mb 0.00 in0.0 mm 0.00 in0.0 mm 0.02 in0.5 mm
12:51 PM 77.2°F25.1°C -165.1°F-109.5°C - 4.8 mph N7.7 kmh N 8.8 mph14.2 kmh 29.14 in986.8 mb 0.00 in0.0 mm 0.00 in0.0 mm 0.02 in0.5 mm
01:06 PM 75.6°F24.2°C -165.2°F-109.6°C - 2.8 mph N4.5 kmh N 6.8 mph10.9 kmh 29.15 in987.1 mb 0.00 in0.0 mm 0.00 in0.0 mm 0.02 in0.5 mm
01:21 PM 77.9°F25.5°C -165.0°F-109.4°C - 5.4 mph N8.7 kmh N 9.6 mph15.4 kmh 29.15 in987.1 mb 0.00 in0.0 mm 0.00 in0.0 mm 0.02 in0.5 mm
01:36 PM 78.1°F25.6°C -165.0°F-109.4°C - 4.8 mph N7.7 kmh N 10.2 mph16.4 kmh 29.16 in987.5 mb 0.00 in0.0 mm 0.00 in0.0 mm 0.02 in0.5 mm
01:51 PM 77.0°F25.0°C -165.1°F-109.5°C - 4.0 mph N6.4 kmh N 7.4 mph11.9 kmh 29.16 in987.5 mb 0.00 in0.0 mm 0.00 in0.0 mm 0.02 in0.5 mm
02:06 PM 76.8°F24.9°C -165.1°F-109.5°C - 6.2 mph N10.0 kmh N 10.2 mph16.4 kmh 29.16 in987.5 mb 0.00 in0.0 mm 0.00 in0.0 mm 0.02 in0.5 mm
02:21 PM 77.2°F25.1°C -165.1°F-109.5°C - 4.0 mph N6.4 kmh N 8.2 mph13.2 kmh 29.16 in987.5 mb 0.00 in0.0 mm 0.00 in0.0 mm 0.02 in0.5 mm
02:36 PM 77.4°F25.2°C -165.1°F-109.5°C - 4.0 mph N6.4 kmh N 9.6 mph15.4 kmh 29.16 in987.5 mb 0.00 in0.0 mm 0.00 in0.0 mm 0.02 in0.5 mm
02:51 PM 77.7°F25.4°C -165.0°F-109.4°C - 2.8 mph N4.5 kmh N 6.2 mph10.0 kmh 29.16 in987.5 mb 0.00 in0.0 mm 0.00 in0.0 mm 0.02 in0.5 mm
03:06 PM 77.5°F25.3°C -165.0°F-109.4°C - 5.4 mph N8.7 kmh N 8.8 mph14.2 kmh 29.17 in987.8 mb 0.00 in0.0 mm 0.00 in0.0 mm 0.02 in0.5 mm
03:21 PM 77.2°F25.1°C -165.1°F-109.5°C - 2.8 mph N4.5 kmh N 4.0 mph6.4 kmh 29.17 in987.8 mb 0.00 in0.0 mm 0.00 in0.0 mm 0.02 in0.5 mm
03:36 PM 75.4°F24.1°C -165.3°F-109.6°C - 6.8 mph N10.9 kmh N 15.0 mph24.1 kmh 29.20 in988.8 mb 0.00 in0.0 mm 0.00 in0.0 mm 0.02 in0.5 mm
03:51 PM 68.7°F20.4°C -165.9°F-109.9°C - 2.0 mph N3.2 kmh N 4.8 mph7.7 kmh 29.24 in990.2 mb 0.21 in5.3 mm 0.84 in21.3 mm 0.23 in5.8 mm
04:06 PM 66.6°F19.2°C -166.1°F-110.1°C - 4.0 mph N6.4 kmh N 6.8 mph10.9 kmh 29.23 in989.8 mb 0.22 in5.6 mm 0.02 in0.5 mm 0.25 in6.4 mm
04:21 PM 66.0°F18.9°C -166.2°F-110.1°C - 1.4 mph N2.3 kmh N 2.8 mph4.5 kmh 29.23 in989.8 mb 0.01 in0.3 mm 0.00 in0.0 mm 0.25 in6.4 mm
04:36 PM 66.9°F19.4°C -166.1°F-110.1°C - 2.0 mph N3.2 kmh N 4.8 mph7.7 kmh 29.23 in989.8 mb 0.01 in0.3 mm 0.00 in0.0 mm 0.25 in6.4 mm
04:51 PM 68.2°F20.1°C -166.0°F-110.0°C - 1.4 mph N2.3 kmh N 2.8 mph4.5 kmh 29.23 in989.8 mb 0.01 in0.3 mm 0.00 in0.0 mm 0.25 in6.4 mm
05:06 PM 68.5°F20.3°C -165.9°F-109.9°C - 2.0 mph N3.2 kmh N 4.0 mph6.4 kmh 29.22 in989.5 mb 0.01 in0.3 mm 0.00 in0.0 mm 0.25 in6.4 mm
05:21 PM 68.5°F20.3°C -165.9°F-109.9°C - 1.4 mph N2.3 kmh N 5.4 mph8.7 kmh 29.22 in989.5 mb 0.00 in0.0 mm 0.00 in0.0 mm 0.25 in6.4 mm
05:36 PM 68.7°F20.4°C -165.9°F-109.9°C - 4.0 mph N6.4 kmh N 7.4 mph11.9 kmh 29.23 in989.8 mb 0.00 in0.0 mm 0.00 in0.0 mm 0.25 in6.4 mm
05:51 PM 69.1°F20.6°C -165.9°F-109.9°C - 2.8 mph N4.5 kmh N 5.4 mph8.7 kmh 29.24 in990.2 mb 0.00 in0.0 mm 0.00 in0.0 mm 0.25 in6.4 mm
06:06 PM 68.9°F20.5°C -165.9°F-109.9°C - 3.4 mph N5.5 kmh N 6.2 mph10.0 kmh 29.25 in990.5 mb 0.00 in0.0 mm 0.00 in0.0 mm 0.25 in6.4 mm
06:21 PM 68.2°F20.1°C -166.0°F-110.0°C - 4.8 mph N7.7 kmh N 8.2 mph13.2 kmh 29.26 in990.9 mb 0.00 in0.0 mm 0.00 in0.0 mm 0.25 in6.4 mm
06:36 PM 65.8°F18.8°C -166.2°F-110.1°C - 4.0 mph N6.4 kmh N 6.8 mph10.9 kmh 29.26 in990.9 mb 0.00 in0.0 mm 0.00 in0.0 mm 0.25 in6.4 mm
06:51 PM 64.9°F18.3°C -166.3°F-110.2°C - 2.8 mph N4.5 kmh N 6.2 mph10.0 kmh 29.24 in990.2 mb 0.01 in0.3 mm 0.05 in1.3 mm 0.26 in6.6 mm
07:06 PM 64.6°F18.1°C -166.3°F-110.2°C - 1.4 mph N2.3 kmh N 4.0 mph6.4 kmh 29.24 in990.2 mb 0.01 in0.3 mm 0.00 in0.0 mm 0.26 in6.6 mm
07:21 PM 64.0°F17.8°C -166.4°F-110.2°C - 3.4 mph N5.5 kmh N 6.2 mph10.0 kmh 29.24 in990.2 mb 0.00 in0.0 mm 0.00 in0.0 mm 0.26 in6.6 mm
07:36 PM 63.7°F17.6°C -166.4°F-110.2°C - 2.0 mph N3.2 kmh N 4.8 mph7.7 kmh 29.24 in990.2 mb 0.00 in0.0 mm 0.00 in0.0 mm 0.26 in6.6 mm
07:51 PM 63.5°F17.5°C -166.5°F-110.3°C - 1.4 mph N2.3 kmh N 3.4 mph5.5 kmh 29.26 in990.9 mb 0.00 in0.0 mm 0.00 in0.0 mm 0.26 in6.6 mm
08:06 PM 63.3°F17.4°C -166.5°F-110.3°C - 3.4 mph N5.5 kmh N 4.8 mph7.7 kmh 29.26 in990.9 mb 0.00 in0.0 mm 0.00 in0.0 mm 0.26 in6.6 mm
08:21 PM 63.5°F17.5°C -166.5°F-110.3°C - 1.4 mph N2.3 kmh N 2.8 mph4.5 kmh 29.27 in991.2 mb 0.00 in0.0 mm 0.00 in0.0 mm 0.26 in6.6 mm
08:36 PM 63.5°F17.5°C -166.5°F-110.3°C - 0.6 mph N1.0 kmh N 2.8 mph4.5 kmh 29.28 in991.5 mb 0.00 in0.0 mm 0.00 in0.0 mm 0.26 in6.6 mm
08:51 PM 63.3°F17.4°C -166.5°F-110.3°C - 2.0 mph N3.2 kmh N 4.0 mph6.4 kmh 29.27 in991.2 mb 0.00 in0.0 mm 0.00 in0.0 mm 0.26 in6.6 mm
09:06 PM 63.3°F17.4°C -166.5°F-110.3°C - 2.0 mph N3.2 kmh N 4.0 mph6.4 kmh 29.27 in991.2 mb 0.00 in0.0 mm 0.00 in0.0 mm 0.26 in6.6 mm
09:21 PM 63.3°F17.4°C -166.5°F-110.3°C - 1.4 mph N2.3 kmh N 4.8 mph7.7 kmh 29.26 in990.9 mb 0.00 in0.0 mm 0.00 in0.0 mm 0.26 in6.6 mm
09:36 PM 63.1°F17.3°C -166.5°F-110.3°C - 2.0 mph N3.2 kmh N 3.4 mph5.5 kmh 29.26 in990.9 mb 0.00 in0.0 mm 0.00 in0.0 mm 0.26 in6.6 mm
09:51 PM 63.5°F17.5°C -166.5°F-110.3°C - 2.8 mph N4.5 kmh N 5.4 mph8.7 kmh 29.27 in991.2 mb 0.00 in0.0 mm 0.00 in0.0 mm 0.26 in6.6 mm
10:06 PM 63.3°F17.4°C -166.5°F-110.3°C - 2.8 mph N4.5 kmh N 5.4 mph8.7 kmh 29.28 in991.5 mb 0.00 in0.0 mm 0.00 in0.0 mm 0.26 in6.6 mm
10:21 PM 63.5°F17.5°C -166.5°F-110.3°C - 2.0 mph N3.2 kmh N 3.4 mph5.5 kmh 29.27 in991.2 mb 0.00 in0.0 mm 0.00 in0.0 mm 0.26 in6.6 mm
10:36 PM 63.5°F17.5°C -166.5°F-110.3°C - 2.0 mph N3.2 kmh N 5.4 mph8.7 kmh 29.27 in991.2 mb 0.00 in0.0 mm 0.00 in0.0 mm 0.26 in6.6 mm
10:51 PM 63.7°F17.6°C -166.4°F-110.2°C - 1.4 mph N2.3 kmh N 3.4 mph5.5 kmh 29.27 in991.2 mb 0.00 in0.0 mm 0.00 in0.0 mm 0.26 in6.6 mm
11:06 PM 63.3°F17.4°C -166.5°F-110.3°C - 1.4 mph N2.3 kmh N 3.4 mph5.5 kmh 29.28 in991.5 mb 0.00 in0.0 mm 0.00 in0.0 mm 0.26 in6.6 mm
11:21 PM 63.7°F17.6°C -166.4°F-110.2°C - 1.4 mph N2.3 kmh N 2.8 mph4.5 kmh 29.28 in991.5 mb 0.00 in0.0 mm 0.00 in0.0 mm 0.26 in6.6 mm
11:36 PM 63.5°F17.5°C -166.5°F-110.3°C - 1.4 mph N2.3 kmh N 3.4 mph5.5 kmh 29.29 in991.9 mb 0.00 in0.0 mm 0.00 in0.0 mm 0.26 in6.6 mm
11:51 PM 63.0°F17.2°C -166.5°F-110.3°C - 1.4 mph N2.3 kmh N 2.8 mph4.5 kmh 29.28 in991.5 mb 0.00 in0.0 mm 0.00 in0.0 mm 0.26 in6.6 mm